createdAt,value
2022-08-18T00:00:12.964Z,6.82
2022-08-18T00:03:27.180Z,5.88
2022-08-18T00:06:16.941Z,6.43
2022-08-18T00:09:08.844Z,6.22
2022-08-18T00:11:57.562Z,6.30
2022-08-18T00:14:46.648Z,6.78
2022-08-18T00:17:35.544Z,6.10
2022-08-18T00:20:25.067Z,6.75
2022-08-18T00:23:13.508Z,6.00
2022-08-18T00:26:00.697Z,6.45
2022-08-18T00:28:49.240Z,6.07
2022-08-18T00:31:37.155Z,6.18
2022-08-18T00:34:24.403Z,6.15
2022-08-18T00:37:12.021Z,6.35
2022-08-18T00:39:58.959Z,6.20
2022-08-18T00:42:50.847Z,6.28
2022-08-18T00:45:42.749Z,5.65
2022-08-18T00:48:30.322Z,5.72
2022-08-18T00:51:22.161Z,6.20
2022-08-18T00:54:15.394Z,5.97
2022-08-18T00:57:07.637Z,5.28
2022-08-18T01:00:07.906Z,5.45
2022-08-18T01:03:02.278Z,5.55
2022-08-18T01:05:54.886Z,5.25
2022-08-18T01:08:42.182Z,4.60
2022-08-18T01:11:30.339Z,5.07
2022-08-18T01:14:18.356Z,5.28
2022-08-18T01:17:23.263Z,5.20
2022-08-18T01:20:34.520Z,5.13
2022-08-18T01:23:25.046Z,4.93
2022-08-18T01:26:13.478Z,5.38
2022-08-18T01:29:11.899Z,4.18
2022-08-18T01:32:06.582Z,4.85
2022-08-18T01:34:54.674Z,4.85
2022-08-18T01:37:42.629Z,4.28
2022-08-18T01:41:25.813Z,4.57
2022-08-18T01:43:39.854Z,4.82
2022-08-18T01:46:29.025Z,4.65
2022-08-18T01:49:18.286Z,4.60
2022-08-18T01:52:08.177Z,4.60
2022-08-18T01:54:57.864Z,4.85
2022-08-18T01:57:46.670Z,4.80
2022-08-18T02:00:36.183Z,4.70
2022-08-18T02:03:27.313Z,4.72
2022-08-18T02:06:18.566Z,4.68
2022-08-18T02:09:23.718Z,5.13
2022-08-18T02:12:12.122Z,4.43
2022-08-18T02:15:00.696Z,4.55
2022-08-18T02:17:48.294Z,5.35
2022-08-18T02:20:35.700Z,4.72
2022-08-18T02:23:23.416Z,4.40
2022-08-18T02:26:13.951Z,4.30
2022-08-18T02:29:01.422Z,5.10
2022-08-18T02:31:49.897Z,4.70
2022-08-18T02:34:37.778Z,4.63
2022-08-18T02:37:25.341Z,4.70
2022-08-18T02:40:15.494Z,5.10
2022-08-18T02:43:09.329Z,4.65
2022-08-18T02:45:57.101Z,4.28
2022-08-18T02:48:45.941Z,4.75
2022-08-18T02:51:33.448Z,4.60
2022-08-18T02:54:23.210Z,4.88
2022-08-18T02:57:12.600Z,4.80
2022-08-18T03:00:01.434Z,4.72
2022-08-18T03:02:49.532Z,4.90
2022-08-18T03:05:38.068Z,4.50
2022-08-18T03:08:25.139Z,4.88
2022-08-18T03:11:12.695Z,4.97
2022-08-18T03:14:00.373Z,4.80
2022-08-18T03:16:54.707Z,4.32
2022-08-18T03:19:43.949Z,4.95
2022-08-18T03:22:35.756Z,4.38
2022-08-18T03:25:23.497Z,4.90
2022-08-18T03:28:10.929Z,4.88
2022-08-18T03:30:58.022Z,4.95
2022-08-18T03:33:46.515Z,4.93
2022-08-18T03:36:34.925Z,4.90
2022-08-18T03:39:25.065Z,5.07
2022-08-18T03:42:12.469Z,5.13
2022-08-18T03:44:59.998Z,4.60
2022-08-18T03:47:52.634Z,4.93
2022-08-18T03:50:39.845Z,4.60
2022-08-18T03:53:27.319Z,4.85
2022-08-18T03:56:19.197Z,4.85
2022-08-18T03:59:12.087Z,5.03
2022-08-18T04:01:59.404Z,4.63
2022-08-18T04:04:46.815Z,4.95
2022-08-18T04:07:38.384Z,4.45
2022-08-18T04:10:26.327Z,4.60
2022-08-18T04:13:15.190Z,5.25
2022-08-18T04:16:02.499Z,5.03
2022-08-18T04:18:49.757Z,4.82
2022-08-18T04:21:40.815Z,4.82
2022-08-18T04:24:31.854Z,4.88
2022-08-18T04:27:21.733Z,5.00
2022-08-18T04:30:12.520Z,5.10
2022-08-18T04:32:59.770Z,4.82
2022-08-18T04:35:47.339Z,5.35
2022-08-18T04:38:34.561Z,5.25
2022-08-18T04:41:23.389Z,5.53
2022-08-18T04:44:12.561Z,5.10
2022-08-18T04:47:02.596Z,5.10
2022-08-18T04:49:50.848Z,5.28
2022-08-18T04:53:00.783Z,4.93
2022-08-18T04:55:49.833Z,5.68
2022-08-18T04:58:37.958Z,5.57
2022-08-18T05:01:29.815Z,6.15
2022-08-18T05:04:19.401Z,5.65
2022-08-18T05:07:07.988Z,5.47
2022-08-18T05:09:55.195Z,5.18
2022-08-18T05:12:42.752Z,5.32
2022-08-18T05:15:42.176Z,5.70
2022-08-18T05:18:40.552Z,5.15
2022-08-18T05:21:33.215Z,5.20
2022-08-18T05:24:23.783Z,5.28
2022-08-18T05:27:12.754Z,5.22
2022-08-18T05:30:00.185Z,4.68
2022-08-18T05:32:49.996Z,4.78
2022-08-18T05:35:43.137Z,6.05
2022-08-18T05:38:48.248Z,5.70
2022-08-18T05:41:39.253Z,5.75
2022-08-18T05:44:34.254Z,6.10
2022-08-18T05:47:27.047Z,5.22
2022-08-18T05:50:18.788Z,5.32
2022-08-18T05:53:14.065Z,5.38
2022-08-18T05:56:23.658Z,5.30
2022-08-18T05:59:13.361Z,5.20
2022-08-18T06:02:09.157Z,5.47
2022-08-18T06:05:01.907Z,4.57
2022-08-18T06:07:56.329Z,5.65
2022-08-18T06:10:50.247Z,6.05
2022-08-18T06:13:42.351Z,4.97
2022-08-18T06:16:50.729Z,5.72
2022-08-18T06:19:50.614Z,5.40
2022-08-18T06:22:52.770Z,5.38
2022-08-18T06:26:01.590Z,5.55
2022-08-18T06:29:16.324Z,5.30
2022-08-18T06:32:24.643Z,5.20
2022-08-18T06:35:20.736Z,5.10
2022-08-18T06:38:45.813Z,5.03
2022-08-18T06:41:43.149Z,5.28
2022-08-18T06:44:41.888Z,5.60
2022-08-18T06:47:41.617Z,5.45
2022-08-18T06:50:36.070Z,5.68
2022-08-18T06:53:54.433Z,5.55
2022-08-18T06:56:51.447Z,5.53
2022-08-18T06:59:40.215Z,5.50
2022-08-18T07:02:43.646Z,5.65
2022-08-18T07:05:34.272Z,5.53
2022-08-18T07:08:35.364Z,6.03
2022-08-18T07:11:28.396Z,6.18
2022-08-18T07:14:22.144Z,5.78
2022-08-18T07:17:14.703Z,6.13
2022-08-18T07:20:09.677Z,5.93
2022-08-18T07:23:00.281Z,5.65
2022-08-18T07:25:50.191Z,6.22
2022-08-18T07:28:41.836Z,5.75
2022-08-18T07:31:43.450Z,6.28
2022-08-18T07:34:36.621Z,5.57
2022-08-18T07:37:29.550Z,5.65
2022-08-18T07:40:26.091Z,6.32
2022-08-18T07:43:21.697Z,5.88
2022-08-18T07:46:20.748Z,5.90
2022-08-18T07:49:08.078Z,6.22
2022-08-18T07:52:05.048Z,5.63
2022-08-18T07:55:10.039Z,5.65
2022-08-18T07:58:10.359Z,5.80
2022-08-18T08:01:02.729Z,6.25
2022-08-18T08:04:00.775Z,6.25
2022-08-18T08:07:22.975Z,6.00
2022-08-18T08:10:35.408Z,5.82
2022-08-18T08:13:54.108Z,6.03
2022-08-18T08:16:48.824Z,6.07
2022-08-18T08:20:10.553Z,5.45
2022-08-18T08:23:17.372Z,5.97
2022-08-18T08:26:25.179Z,6.28
2022-08-18T08:29:23.077Z,5.65
2022-08-18T08:32:17.435Z,6.03
2022-08-18T08:35:15.604Z,6.25
2022-08-18T08:38:42.772Z,6.07
2022-08-18T08:41:39.672Z,6.07
2022-08-18T08:44:44.984Z,6.88
2022-08-18T08:48:06.651Z,6.53
2022-08-18T08:51:02.907Z,6.35
2022-08-18T08:53:57.503Z,6.53
2022-08-18T08:56:48.609Z,6.78
2022-08-18T08:59:37.218Z,6.18
2022-08-18T09:02:48.935Z,6.82
2022-08-18T09:05:41.416Z,7.30
2022-08-18T09:09:18.636Z,7.13
2022-08-18T09:12:24.887Z,6.68
2022-08-18T09:15:52.233Z,7.20
2022-08-18T09:18:58.944Z,7.15
2022-08-18T09:21:54.762Z,8.13
2022-08-18T09:24:48.977Z,8.45
2022-08-18T09:28:09.352Z,8.15
2022-08-18T09:34:45.331Z,8.32
2022-08-18T09:38:08.511Z,8.23
2022-08-18T09:41:18.618Z,7.90
2022-08-18T09:44:12.072Z,8.60
2022-08-18T09:47:10.232Z,8.30
2022-08-18T09:49:58.487Z,8.15
2022-08-18T09:52:50.505Z,8.90
2022-08-18T09:56:04.792Z,9.07
2022-08-18T09:59:02.139Z,8.52
2022-08-18T10:01:52.545Z,8.40
2022-08-18T10:04:49.148Z,9.18
2022-08-18T10:07:43.997Z,8.43
2022-08-18T10:10:59.476Z,8.43
2022-08-18T10:14:04.332Z,8.98
2022-08-18T10:20:28.594Z,8.55
2022-08-18T10:24:03.127Z,8.77
2022-08-18T10:27:04.048Z,9.00
2022-08-18T10:29:58.493Z,8.63
2022-08-18T10:32:52.107Z,8.32
2022-08-18T10:36:03.215Z,7.22
2022-08-18T10:38:53.515Z,8.50
2022-08-18T10:41:58.069Z,9.63
2022-08-18T10:44:48.446Z,10.23
2022-08-18T10:47:37.513Z,11.70
2022-08-18T10:50:28.456Z,12.30
2022-08-18T10:53:44.390Z,11.02
2022-08-18T10:56:41.934Z,10.88
2022-08-18T10:59:48.968Z,10.77
2022-08-18T11:03:21.060Z,11.57
2022-08-18T11:06:21.231Z,12.20
2022-08-18T11:09:10.364Z,11.43
2022-08-18T11:12:02.275Z,11.95
2022-08-18T11:18:43.266Z,14.40
2022-08-18T11:21:42.601Z,15.25
2022-08-18T11:24:35.353Z,15.80
2022-08-18T11:27:28.953Z,15.60
2022-08-18T11:30:17.765Z,15.35
2022-08-18T11:33:05.943Z,13.93
2022-08-18T11:35:59.452Z,16.13
2022-08-18T11:38:56.627Z,17.33
2022-08-18T11:41:50.257Z,17.95
2022-08-18T11:44:41.009Z,17.23
2022-08-18T11:47:30.174Z,17.88
2022-08-18T11:50:29.700Z,16.75
2022-08-18T11:53:26.570Z,14.93
2022-08-18T11:56:30.940Z,13.73
2022-08-18T11:59:54.303Z,14.15
2022-08-18T12:02:43.375Z,13.63
2022-08-18T12:05:33.765Z,14.80
2022-08-18T12:08:57.011Z,15.90
2022-08-18T12:11:54.794Z,14.55
2022-08-18T12:15:03.601Z,16.98
2022-08-18T12:17:55.152Z,17.25
2022-08-18T12:20:42.257Z,16.83
2022-08-18T12:23:44.442Z,17.75
2022-08-18T12:26:38.523Z,19.58
2022-08-18T12:29:36.753Z,19.15
2022-08-18T12:35:42.241Z,19.00
2022-08-18T12:38:29.570Z,23.60
2022-08-18T12:41:22.887Z,21.77
2022-08-18T12:44:13.134Z,23.70
2022-08-18T12:47:03.405Z,23.85
2022-08-18T12:49:51.572Z,21.75
2022-08-18T12:52:39.677Z,23.30
2022-08-18T12:55:43.506Z,24.70
2022-08-18T12:58:32.842Z,22.63
2022-08-18T13:01:26.577Z,25.05
2022-08-18T13:04:15.618Z,26.67
2022-08-18T13:07:07.989Z,25.05
2022-08-18T13:09:56.228Z,22.17
2022-08-18T13:12:43.332Z,24.17
2022-08-18T13:15:30.838Z,24.50
2022-08-18T13:18:19.947Z,26.08
2022-08-18T13:21:16.724Z,24.67
2022-08-18T13:24:05.242Z,24.50
2022-08-18T13:26:56.961Z,25.83
2022-08-18T13:29:44.336Z,27.65
2022-08-18T13:32:38.351Z,30.48
2022-08-18T13:35:44.163Z,28.00
2022-08-18T13:38:31.998Z,25.45
2022-08-18T13:41:19.186Z,22.88
2022-08-18T13:44:11.601Z,20.73
2022-08-18T13:46:59.529Z,20.55
2022-08-18T13:49:58.206Z,24.08
2022-08-18T13:52:48.203Z,25.17
2022-08-18T13:55:36.953Z,23.20
2022-08-18T13:58:24.220Z,23.95
2022-08-18T14:04:22.531Z,18.48
2022-08-18T14:07:12.556Z,19.23
2022-08-18T14:10:10.683Z,14.32
2022-08-18T14:13:20.194Z,20.45
2022-08-18T14:16:10.408Z,20.30
2022-08-18T14:19:15.028Z,18.65
2022-08-18T14:22:23.271Z,20.05
2022-08-18T14:25:31.860Z,18.92
2022-08-18T14:28:24.776Z,17.45
2022-08-18T14:31:12.999Z,14.48
2022-08-18T14:34:04.089Z,16.00
2022-08-18T14:36:51.921Z,14.35
2022-08-18T14:39:40.353Z,15.25
2022-08-18T14:42:41.156Z,12.85
2022-08-18T14:45:35.316Z,13.85
2022-08-18T14:48:24.173Z,15.65
2022-08-18T14:51:11.968Z,14.30
2022-08-18T14:53:59.023Z,15.88
2022-08-18T14:56:46.892Z,17.23
2022-08-18T14:59:37.910Z,15.57
2022-08-18T15:02:25.640Z,14.85
2022-08-18T15:05:19.548Z,14.82
2022-08-18T15:08:11.860Z,13.93
2022-08-18T15:10:59.713Z,13.98
2022-08-18T15:13:47.267Z,14.48
2022-08-18T15:16:38.717Z,14.05
2022-08-18T15:19:58.513Z,14.43
2022-08-18T15:22:56.874Z,13.25
2022-08-18T15:25:50.930Z,12.50
2022-08-18T15:28:38.991Z,12.00
2022-08-18T15:34:46.909Z,13.05
2022-08-18T15:37:39.572Z,12.55
2022-08-18T15:40:41.437Z,11.80
2022-08-18T15:43:31.657Z,12.82
2022-08-18T15:46:19.148Z,11.60
2022-08-18T15:49:11.322Z,12.57
2022-08-18T15:52:03.862Z,11.18
2022-08-18T15:54:51.266Z,12.13
2022-08-18T15:57:40.000Z,12.15
2022-08-18T16:00:32.079Z,12.02
2022-08-18T16:03:21.313Z,11.80
2022-08-18T16:06:14.358Z,12.00
2022-08-18T16:09:08.868Z,11.25
2022-08-18T16:12:00.241Z,11.07
2022-08-18T16:14:48.124Z,10.20
2022-08-18T16:17:35.534Z,11.82
2022-08-18T16:20:25.407Z,11.38
2022-08-18T16:23:13.892Z,11.68
2022-08-18T16:26:04.409Z,19.40
2022-08-18T16:28:54.047Z,11.52
2022-08-18T16:31:41.577Z,10.68
2022-08-18T16:34:30.964Z,10.38
2022-08-18T16:37:18.121Z,11.85
2022-08-18T16:40:08.545Z,11.57
2022-08-18T16:42:59.401Z,11.82
2022-08-18T16:45:48.612Z,10.95
2022-08-18T16:48:38.118Z,11.07
2022-08-18T16:51:28.159Z,10.90
2022-08-18T16:54:16.449Z,10.63
2022-08-18T16:57:03.849Z,10.80
2022-08-18T17:00:09.894Z,10.23
2022-08-18T17:03:14.370Z,10.45
2022-08-18T17:06:03.357Z,9.85
2022-08-18T17:08:50.590Z,9.93
2022-08-18T17:11:48.066Z,10.90
2022-08-18T17:14:39.512Z,10.43
2022-08-18T17:17:28.284Z,10.15
2022-08-18T17:20:18.797Z,9.88
2022-08-18T17:23:07.747Z,8.88
2022-08-18T17:25:58.598Z,8.73
2022-08-18T17:28:53.879Z,9.38
2022-08-18T17:31:47.465Z,8.88
2022-08-18T17:34:41.934Z,9.00
2022-08-18T17:37:31.440Z,9.63
2022-08-18T17:40:24.437Z,9.10
2022-08-18T17:43:18.690Z,8.07
2022-08-18T17:46:14.050Z,8.60
2022-08-18T17:49:05.322Z,8.90
2022-08-18T17:51:56.600Z,8.77
2022-08-18T17:54:49.415Z,8.63
2022-08-18T17:57:43.567Z,8.95
2022-08-18T18:00:46.237Z,8.77
2022-08-18T18:03:34.225Z,9.00
2022-08-18T18:06:33.562Z,8.52
2022-08-18T18:09:32.709Z,9.27
2022-08-18T18:12:24.673Z,9.88
2022-08-18T18:15:15.459Z,9.73
2022-08-18T18:18:26.639Z,10.30
2022-08-18T18:21:22.929Z,9.85
2022-08-18T18:24:35.835Z,10.65
2022-08-18T18:27:35.610Z,10.77
2022-08-18T18:30:27.549Z,11.07
2022-08-18T18:33:18.420Z,11.63
2022-08-18T18:36:06.779Z,11.73
2022-08-18T18:39:11.140Z,11.70
2022-08-18T18:42:19.481Z,11.27
2022-08-18T18:45:09.703Z,11.48
2022-08-18T18:48:06.399Z,12.25
2022-08-18T18:51:10.807Z,12.02
2022-08-18T18:54:07.343Z,11.70
2022-08-18T18:56:57.439Z,10.98
2022-08-18T19:00:02.410Z,11.07
2022-08-18T19:03:03.844Z,10.38
2022-08-18T19:06:16.758Z,10.25
2022-08-18T19:09:14.061Z,10.00
2022-08-18T19:12:13.708Z,9.68
2022-08-18T19:15:14.753Z,9.65
2022-08-18T19:18:06.441Z,9.60
2022-08-18T19:22:01.948Z,9.63
2022-08-18T19:24:14.824Z,8.85
2022-08-18T19:27:06.039Z,8.98
2022-08-18T19:29:58.329Z,9.32
2022-08-18T19:32:52.003Z,10.00
2022-08-18T19:35:58.798Z,9.70
2022-08-18T19:38:55.561Z,10.48
2022-08-18T19:41:51.096Z,9.85
2022-08-18T19:44:51.073Z,10.73
2022-08-18T19:48:00.534Z,9.82
2022-08-18T19:50:54.302Z,10.20
2022-08-18T19:54:14.453Z,10.27
2022-08-18T19:57:18.164Z,9.98
2022-08-18T20:00:22.886Z,10.38
2022-08-18T20:04:03.802Z,11.05
2022-08-18T20:07:20.510Z,10.00
2022-08-18T20:10:36.304Z,10.20
2022-08-18T20:13:35.281Z,9.52
2022-08-18T20:16:43.956Z,9.88
2022-08-18T20:20:13.599Z,9.75
2022-08-18T20:23:02.000Z,9.70
2022-08-18T20:25:50.079Z,10.07
2022-08-18T20:28:41.745Z,9.80
2022-08-18T20:31:52.249Z,9.80
2022-08-18T20:34:39.898Z,9.85
2022-08-18T20:37:31.851Z,9.65
2022-08-18T20:40:42.901Z,10.38
2022-08-18T20:43:33.765Z,9.52
2022-08-18T20:46:37.549Z,8.98
2022-08-18T20:49:50.415Z,10.00
2022-08-18T20:52:48.945Z,10.13
2022-08-18T20:55:46.817Z,10.32
2022-08-18T20:58:38.586Z,10.25
2022-08-18T21:01:30.626Z,10.88
2022-08-18T21:04:17.739Z,11.45
2022-08-18T21:07:13.085Z,10.77
2022-08-18T21:10:12.802Z,10.55
2022-08-18T21:13:04.214Z,10.35
2022-08-18T21:15:51.507Z,11.57
2022-08-18T21:18:41.018Z,10.63
2022-08-18T21:21:32.775Z,11.25
2022-08-18T21:24:33.810Z,11.23
2022-08-18T21:27:28.106Z,11.40
2022-08-18T21:30:21.386Z,11.40
2022-08-18T21:33:21.200Z,11.40
2022-08-18T21:36:14.622Z,11.55
2022-08-18T21:39:09.363Z,11.27
2022-08-18T21:41:59.541Z,11.40
2022-08-18T21:44:49.974Z,11.55
2022-08-18T21:47:37.215Z,11.98
2022-08-18T21:50:27.154Z,11.85
2022-08-18T21:53:30.330Z,12.68
2022-08-18T21:56:24.257Z,12.68
2022-08-18T21:59:14.565Z,13.07
2022-08-18T22:02:03.930Z,12.80
2022-08-18T22:04:51.267Z,12.32
2022-08-18T22:07:47.287Z,12.52
2022-08-18T22:10:52.529Z,13.30
2022-08-18T22:13:59.728Z,13.32
2022-08-18T22:17:01.893Z,13.88
2022-08-18T22:19:50.631Z,13.45
2022-08-18T22:22:55.118Z,13.18
2022-08-18T22:25:43.385Z,14.32
2022-08-18T22:28:30.699Z,14.15
2022-08-18T22:31:21.299Z,13.40
2022-08-18T22:34:11.718Z,13.05
2022-08-18T22:37:04.259Z,13.00
2022-08-18T22:39:55.731Z,13.68
2022-08-18T22:42:43.328Z,12.63
2022-08-18T22:45:30.679Z,12.88
2022-08-18T22:48:18.099Z,12.88
2022-08-18T22:51:06.513Z,13.23
2022-08-18T22:53:56.815Z,12.50
2022-08-18T22:56:55.211Z,11.70
2022-08-18T22:59:46.790Z,12.05
2022-08-18T23:02:34.407Z,11.32
2022-08-18T23:05:21.786Z,12.10
2022-08-18T23:08:09.052Z,11.82
2022-08-18T23:10:57.744Z,12.98
2022-08-18T23:13:45.249Z,11.77
2022-08-18T23:16:32.606Z,12.95
2022-08-18T23:19:22.241Z,13.40
2022-08-18T23:22:11.073Z,13.02
2022-08-18T23:24:58.626Z,13.55
2022-08-18T23:27:47.361Z,14.88
2022-08-18T23:30:34.968Z,14.30
2022-08-18T23:33:22.065Z,13.60
2022-08-18T23:36:10.622Z,14.10
2022-08-18T23:38:58.730Z,13.68
2022-08-18T23:41:45.955Z,13.32
2022-08-18T23:44:35.455Z,13.23
2022-08-18T23:47:22.676Z,13.70
2022-08-18T23:50:11.893Z,13.25
2022-08-18T23:53:01.585Z,13.95
2022-08-18T23:55:48.709Z,13.48
2022-08-18T23:58:36.165Z,13.70
